sensor_id;sensor_type;location;lat;lon;timestamp;temperature;humidity
65072;DHT22;51663;52.310;17.016;2023-02-28T00:03:01;27.20;19.70
65072;DHT22;51663;52.310;17.016;2023-02-28T00:06:05;27.20;19.60
65072;DHT22;51663;52.310;17.016;2023-02-28T00:09:08;27.10;19.60
65072;DHT22;51663;52.310;17.016;2023-02-28T00:12:10;27.00;19.60
65072;DHT22;51663;52.310;17.016;2023-02-28T00:15:12;26.80;19.70
65072;DHT22;51663;52.310;17.016;2023-02-28T00:18:15;26.70;19.90
65072;DHT22;51663;52.310;17.016;2023-02-28T00:21:18;26.80;20.00
65072;DHT22;51663;52.310;17.016;2023-02-28T00:24:21;27.00;20.00
65072;DHT22;51663;52.310;17.016;2023-02-28T00:27:23;26.90;19.90
65072;DHT22;51663;52.310;17.016;2023-02-28T00:30:25;26.90;20.00
65072;DHT22;51663;52.310;17.016;2023-02-28T00:33:28;26.90;20.00
65072;DHT22;51663;52.310;17.016;2023-02-28T00:36:31;26.90;19.70
65072;DHT22;51663;52.310;17.016;2023-02-28T00:39:37;26.70;19.70
65072;DHT22;51663;52.310;17.016;2023-02-28T00:42:39;26.80;19.60
65072;DHT22;51663;52.310;17.016;2023-02-28T00:45:42;27.00;19.60
65072;DHT22;51663;52.310;17.016;2023-02-28T00:48:44;26.70;19.90
65072;DHT22;51663;52.310;17.016;2023-02-28T00:51:46;26.60;20.10
65072;DHT22;51663;52.310;17.016;2023-02-28T00:54:48;26.60;20.20
65072;DHT22;51663;52.310;17.016;2023-02-28T00:57:50;26.40;20.20
65072;DHT22;51663;52.310;17.016;2023-02-28T01:00:53;26.30;20.30
65072;DHT22;51663;52.310;17.016;2023-02-28T01:03:55;26.30;20.30
65072;DHT22;51663;52.310;17.016;2023-02-28T01:06:57;25.80;20.50
65072;DHT22;51663;52.310;17.016;2023-02-28T01:09:59;25.80;20.80
65072;DHT22;51663;52.310;17.016;2023-02-28T01:13:02;25.90;20.60
65072;DHT22;51663;52.310;17.016;2023-02-28T01:16:05;26.10;20.20
65072;DHT22;51663;52.310;17.016;2023-02-28T01:19:07;26.30;19.70
65072;DHT22;51663;52.310;17.016;2023-02-28T01:22:09;26.50;19.40
65072;DHT22;51663;52.310;17.016;2023-02-28T01:25:12;26.60;19.40
65072;DHT22;51663;52.310;17.016;2023-02-28T01:28:14;26.70;19.00
65072;DHT22;51663;52.310;17.016;2023-02-28T01:31:18;26.70;18.90
65072;DHT22;51663;52.310;17.016;2023-02-28T01:34:20;26.70;18.80
65072;DHT22;51663;52.310;17.016;2023-02-28T01:37:22;26.70;19.10
65072;DHT22;51663;52.310;17.016;2023-02-28T01:40:24;26.60;18.80
65072;DHT22;51663;52.310;17.016;2023-02-28T01:43:30;26.60;18.80
65072;DHT22;51663;52.310;17.016;2023-02-28T01:46:35;26.50;18.80
65072;DHT22;51663;52.310;17.016;2023-02-28T01:49:38;26.40;19.20
65072;DHT22;51663;52.310;17.016;2023-02-28T01:52:41;26.30;19.30
65072;DHT22;51663;52.310;17.016;2023-02-28T01:55:47;26.20;19.30
65072;DHT22;51663;52.310;17.016;2023-02-28T01:58:51;26.20;19.30
65072;DHT22;51663;52.310;17.016;2023-02-28T02:01:54;26.20;19.30
65072;DHT22;51663;52.310;17.016;2023-02-28T02:08:06;26.20;19.00
65072;DHT22;51663;52.310;17.016;2023-02-28T02:11:11;25.90;19.90
65072;DHT22;51663;52.310;17.016;2023-02-28T02:17:30;25.90;20.00
65072;DHT22;51663;52.310;17.016;2023-02-28T02:20:51;25.90;20.00
65072;DHT22;51663;52.310;17.016;2023-02-28T02:30:43;24.90;20.70
65072;DHT22;51663;52.310;17.016;2023-02-28T02:34:25;25.10;20.50
65072;DHT22;51663;52.310;17.016;2023-02-28T02:37:51;25.30;20.50
65072;DHT22;51663;52.310;17.016;2023-02-28T02:41:08;25.40;20.30
65072;DHT22;51663;52.310;17.016;2023-02-28T02:44:40;25.70;20.10
65072;DHT22;51663;52.310;17.016;2023-02-28T02:47:47;25.10;20.10
65072;DHT22;51663;52.310;17.016;2023-02-28T02:50:53;24.40;20.50
65072;DHT22;51663;52.310;17.016;2023-02-28T02:57:08;24.50;20.50
65072;DHT22;51663;52.310;17.016;2023-02-28T03:00:14;24.60;20.30
65072;DHT22;51663;52.310;17.016;2023-02-28T03:03:18;25.10;20.10
65072;DHT22;51663;52.310;17.016;2023-02-28T03:06:23;25.00;19.90
65072;DHT22;51663;52.310;17.016;2023-02-28T03:09:26;24.80;20.20
65072;DHT22;51663;52.310;17.016;2023-02-28T03:12:39;25.20;20.00
65072;DHT22;51663;52.310;17.016;2023-02-28T03:19:34;25.80;18.90
65072;DHT22;51663;52.310;17.016;2023-02-28T03:26:06;25.90;19.10
65072;DHT22;51663;52.310;17.016;2023-02-28T03:32:28;25.80;19.10
65072;DHT22;51663;52.310;17.016;2023-02-28T03:35:36;25.90;18.30
65072;DHT22;51663;52.310;17.016;2023-02-28T03:38:54;25.90;18.60
65072;DHT22;51663;52.310;17.016;2023-02-28T03:42:00;25.90;18.40
65072;DHT22;51663;52.310;17.016;2023-02-28T03:45:09;26.00;18.30
65072;DHT22;51663;52.310;17.016;2023-02-28T03:48:27;26.00;18.30
65072;DHT22;51663;52.310;17.016;2023-02-28T03:51:32;25.90;18.30
65072;DHT22;51663;52.310;17.016;2023-02-28T03:54:59;25.90;18.40
65072;DHT22;51663;52.310;17.016;2023-02-28T03:58:14;25.90;17.90
65072;DHT22;51663;52.310;17.016;2023-02-28T04:04:29;25.80;18.70
65072;DHT22;51663;52.310;17.016;2023-02-28T04:07:31;25.70;18.70
65072;DHT22;51663;52.310;17.016;2023-02-28T04:10:34;25.60;19.10
65072;DHT22;51663;52.310;17.016;2023-02-28T04:13:36;25.70;18.30
65072;DHT22;51663;52.310;17.016;2023-02-28T04:16:40;25.70;18.20
65072;DHT22;51663;52.310;17.016;2023-02-28T04:19:43;25.70;19.20
65072;DHT22;51663;52.310;17.016;2023-02-28T04:22:45;25.70;18.40
65072;DHT22;51663;52.310;17.016;2023-02-28T04:25:47;25.70;18.10
65072;DHT22;51663;52.310;17.016;2023-02-28T04:28:49;25.80;17.60
65072;DHT22;51663;52.310;17.016;2023-02-28T04:31:52;25.70;17.80
65072;DHT22;51663;52.310;17.016;2023-02-28T04:35:00;25.70;18.10
65072;DHT22;51663;52.310;17.016;2023-02-28T04:38:01;25.60;17.70
65072;DHT22;51663;52.310;17.016;2023-02-28T04:41:04;25.10;19.20
65072;DHT22;51663;52.310;17.016;2023-02-28T04:44:07;25.10;19.40
65072;DHT22;51663;52.310;17.016;2023-02-28T04:47:09;24.90;19.60
65072;DHT22;51663;52.310;17.016;2023-02-28T04:50:11;24.60;19.90
65072;DHT22;51663;52.310;17.016;2023-02-28T04:53:13;24.60;19.80
65072;DHT22;51663;52.310;17.016;2023-02-28T04:56:17;24.50;19.80
65072;DHT22;51663;52.310;17.016;2023-02-28T04:59:19;24.60;19.90
65072;DHT22;51663;52.310;17.016;2023-02-28T05:02:22;24.90;19.60
65072;DHT22;51663;52.310;17.016;2023-02-28T05:05:25;25.10;19.10
65072;DHT22;51663;52.310;17.016;2023-02-28T05:08:27;25.30;18.50
65072;DHT22;51663;52.310;17.016;2023-02-28T05:11:33;25.40;18.40
65072;DHT22;51663;52.310;17.016;2023-02-28T05:14:36;25.50;18.30
65072;DHT22;51663;52.310;17.016;2023-02-28T05:17:39;25.50;17.50
65072;DHT22;51663;52.310;17.016;2023-02-28T05:20:41;25.60;17.50
65072;DHT22;51663;52.310;17.016;2023-02-28T05:23:43;25.60;17.70
65072;DHT22;51663;52.310;17.016;2023-02-28T05:26:47;25.60;17.70
65072;DHT22;51663;52.310;17.016;2023-02-28T05:29:50;25.60;17.90
65072;DHT22;51663;52.310;17.016;2023-02-28T05:32:52;25.60;18.30
65072;DHT22;51663;52.310;17.016;2023-02-28T05:35:54;25.60;17.70
65072;DHT22;51663;52.310;17.016;2023-02-28T05:38:57;25.50;18.80
65072;DHT22;51663;52.310;17.016;2023-02-28T05:41:59;25.50;18.50
65072;DHT22;51663;52.310;17.016;2023-02-28T05:45:01;25.60;17.50
65072;DHT22;51663;52.310;17.016;2023-02-28T05:48:04;25.60;17.60
65072;DHT22;51663;52.310;17.016;2023-02-28T05:51:07;25.60;17.40
65072;DHT22;51663;52.310;17.016;2023-02-28T05:54:09;25.60;17.60
65072;DHT22;51663;52.310;17.016;2023-02-28T05:57:14;25.60;17.40
65072;DHT22;51663;52.310;17.016;2023-02-28T06:00:28;25.60;17.80
65072;DHT22;51663;52.310;17.016;2023-02-28T06:03:30;25.60;18.80
65072;DHT22;51663;52.310;17.016;2023-02-28T06:06:33;25.70;18.30
65072;DHT22;51663;52.310;17.016;2023-02-28T06:09:38;25.70;17.50
65072;DHT22;51663;52.310;17.016;2023-02-28T06:12:41;25.70;18.50
65072;DHT22;51663;52.310;17.016;2023-02-28T06:15:43;25.70;18.30
65072;DHT22;51663;52.310;17.016;2023-02-28T06:18:45;25.80;18.80
65072;DHT22;51663;52.310;17.016;2023-02-28T06:21:49;25.90;18.60
65072;DHT22;51663;52.310;17.016;2023-02-28T06:24:53;26.00;18.50
65072;DHT22;51663;52.310;17.016;2023-02-28T06:27:56;26.00;18.70
65072;DHT22;51663;52.310;17.016;2023-02-28T06:30:58;26.00;19.00
65072;DHT22;51663;52.310;17.016;2023-02-28T06:34:01;26.10;19.00
65072;DHT22;51663;52.310;17.016;2023-02-28T06:37:03;25.80;19.20
65072;DHT22;51663;52.310;17.016;2023-02-28T06:40:05;25.80;19.30
65072;DHT22;51663;52.310;17.016;2023-02-28T06:43:09;25.80;19.40
65072;DHT22;51663;52.310;17.016;2023-02-28T06:46:14;25.90;19.60
65072;DHT22;51663;52.310;17.016;2023-02-28T06:49:17;25.80;19.60
65072;DHT22;51663;52.310;17.016;2023-02-28T06:52:19;26.10;19.50
65072;DHT22;51663;52.310;17.016;2023-02-28T06:55:21;26.30;19.50
65072;DHT22;51663;52.310;17.016;2023-02-28T06:58:23;26.40;19.50
65072;DHT22;51663;52.310;17.016;2023-02-28T07:01:26;26.50;19.40
65072;DHT22;51663;52.310;17.016;2023-02-28T07:04:30;26.60;19.60
65072;DHT22;51663;52.310;17.016;2023-02-28T07:07:32;26.40;19.60
65072;DHT22;51663;52.310;17.016;2023-02-28T07:10:37;26.40;19.80
65072;DHT22;51663;52.310;17.016;2023-02-28T07:13:39;26.00;20.00
65072;DHT22;51663;52.310;17.016;2023-02-28T07:16:41;26.50;20.10
65072;DHT22;51663;52.310;17.016;2023-02-28T07:19:44;25.50;20.30
65072;DHT22;51663;52.310;17.016;2023-02-28T07:22:46;25.20;20.50
65072;DHT22;51663;52.310;17.016;2023-02-28T07:25:53;25.90;20.50
65072;DHT22;51663;52.310;17.016;2023-02-28T07:28:55;25.70;20.30
65072;DHT22;51663;52.310;17.016;2023-02-28T07:31:58;25.50;20.80
65072;DHT22;51663;52.310;17.016;2023-02-28T07:35:00;25.90;20.60
65072;DHT22;51663;52.310;17.016;2023-02-28T07:38:02;25.90;20.60
65072;DHT22;51663;52.310;17.016;2023-02-28T07:41:05;26.00;20.40
65072;DHT22;51663;52.310;17.016;2023-02-28T07:44:07;26.20;20.20
65072;DHT22;51663;52.310;17.016;2023-02-28T07:47:10;26.20;20.40
65072;DHT22;51663;52.310;17.016;2023-02-28T07:50:14;26.40;20.20
65072;DHT22;51663;52.310;17.016;2023-02-28T07:53:17;26.50;20.20
65072;DHT22;51663;52.310;17.016;2023-02-28T07:56:19;26.50;20.30
65072;DHT22;51663;52.310;17.016;2023-02-28T07:59:21;26.70;20.10
65072;DHT22;51663;52.310;17.016;2023-02-28T08:02:24;26.60;20.00
65072;DHT22;51663;52.310;17.016;2023-02-28T08:05:26;26.80;20.10
65072;DHT22;51663;52.310;17.016;2023-02-28T08:08:28;26.70;19.90
65072;DHT22;51663;52.310;17.016;2023-02-28T08:11:33;26.80;19.90
65072;DHT22;51663;52.310;17.016;2023-02-28T08:14:35;26.90;19.80
65072;DHT22;51663;52.310;17.016;2023-02-28T08:17:38;26.60;19.70
65072;DHT22;51663;52.310;17.016;2023-02-28T08:20:40;26.90;19.70
65072;DHT22;51663;52.310;17.016;2023-02-28T08:23:42;26.60;19.10
65072;DHT22;51663;52.310;17.016;2023-02-28T08:26:44;26.60;19.30
65072;DHT22;51663;52.310;17.016;2023-02-28T08:29:46;26.80;19.30
65072;DHT22;51663;52.310;17.016;2023-02-28T08:32:48;26.90;19.20
65072;DHT22;51663;52.310;17.016;2023-02-28T08:35:54;26.90;19.20
65072;DHT22;51663;52.310;17.016;2023-02-28T08:38:57;27.10;19.00
65072;DHT22;51663;52.310;17.016;2023-02-28T08:42:02;27.20;19.00
65072;DHT22;51663;52.310;17.016;2023-02-28T08:45:09;27.00;19.00
65072;DHT22;51663;52.310;17.016;2023-02-28T08:48:11;27.10;19.00
65072;DHT22;51663;52.310;17.016;2023-02-28T08:51:15;27.20;19.00
65072;DHT22;51663;52.310;17.016;2023-02-28T08:54:20;27.30;18.70
65072;DHT22;51663;52.310;17.016;2023-02-28T08:57:22;26.90;18.80
65072;DHT22;51663;52.310;17.016;2023-02-28T09:00:25;26.90;18.30
65072;DHT22;51663;52.310;17.016;2023-02-28T09:03:27;27.40;18.30
65072;DHT22;51663;52.310;17.016;2023-02-28T09:06:29;27.50;18.20
65072;DHT22;51663;52.310;17.016;2023-02-28T09:09:32;27.30;18.00
65072;DHT22;51663;52.310;17.016;2023-02-28T09:12:34;26.70;18.80
65072;DHT22;51663;52.310;17.016;2023-02-28T09:15:38;26.60;18.70
65072;DHT22;51663;52.310;17.016;2023-02-28T09:18:40;25.00;19.40
65072;DHT22;51663;52.310;17.016;2023-02-28T09:21:43;24.50;19.60
65072;DHT22;51663;52.310;17.016;2023-02-28T09:24:45;25.10;19.70
65072;DHT22;51663;52.310;17.016;2023-02-28T09:27:47;25.80;19.60
65072;DHT22;51663;52.310;17.016;2023-02-28T09:30:53;26.30;19.20
65072;DHT22;51663;52.310;17.016;2023-02-28T09:33:57;26.60;18.60
65072;DHT22;51663;52.310;17.016;2023-02-28T09:36:59;26.30;18.90
65072;DHT22;51663;52.310;17.016;2023-02-28T09:40:01;26.40;18.90
65072;DHT22;51663;52.310;17.016;2023-02-28T09:43:05;26.90;18.20
65072;DHT22;51663;52.310;17.016;2023-02-28T09:46:41;27.20;17.80
65072;DHT22;51663;52.310;17.016;2023-02-28T09:49:46;27.10;17.90
65072;DHT22;51663;52.310;17.016;2023-02-28T09:52:50;27.00;18.00
65072;DHT22;51663;52.310;17.016;2023-02-28T09:55:58;27.50;17.90
65072;DHT22;51663;52.310;17.016;2023-02-28T09:59:14;27.50;17.70
65072;DHT22;51663;52.310;17.016;2023-02-28T10:05:57;27.30;17.40
65072;DHT22;51663;52.310;17.016;2023-02-28T10:09:08;27.10;17.50
65072;DHT22;51663;52.310;17.016;2023-02-28T10:12:16;27.00;17.60
65072;DHT22;51663;52.310;17.016;2023-02-28T10:15:22;27.30;17.80
65072;DHT22;51663;52.310;17.016;2023-02-28T10:18:29;26.70;18.00
65072;DHT22;51663;52.310;17.016;2023-02-28T10:21:46;26.90;17.90
65072;DHT22;51663;52.310;17.016;2023-02-28T10:24:51;27.40;17.70
65072;DHT22;51663;52.310;17.016;2023-02-28T10:28:01;26.50;18.00
65072;DHT22;51663;52.310;17.016;2023-02-28T10:31:13;26.80;18.30
65072;DHT22;51663;52.310;17.016;2023-02-28T10:34:17;26.60;18.10
65072;DHT22;51663;52.310;17.016;2023-02-28T10:37:19;27.20;17.80
65072;DHT22;51663;52.310;17.016;2023-02-28T10:40:42;27.20;17.30
65072;DHT22;51663;52.310;17.016;2023-02-28T10:43:44;27.00;17.30
65072;DHT22;51663;52.310;17.016;2023-02-28T10:46:47;26.10;18.10
65072;DHT22;51663;52.310;17.016;2023-02-28T10:49:50;26.30;18.10
65072;DHT22;51663;52.310;17.016;2023-02-28T10:52:54;26.90;17.90
65072;DHT22;51663;52.310;17.016;2023-02-28T10:56:05;26.80;17.80
65072;DHT22;51663;52.310;17.016;2023-02-28T11:02:34;26.90;17.90
65072;DHT22;51663;52.310;17.016;2023-02-28T11:05:37;27.40;17.50
65072;DHT22;51663;52.310;17.016;2023-02-28T11:08:48;27.40;17.30
65072;DHT22;51663;52.310;17.016;2023-02-28T11:11:51;27.70;17.30
65072;DHT22;51663;52.310;17.016;2023-02-28T11:15:07;26.20;17.90
65072;DHT22;51663;52.310;17.016;2023-02-28T11:22:00;26.00;18.10
65072;DHT22;51663;52.310;17.016;2023-02-28T11:25:10;25.80;18.70
65072;DHT22;51663;52.310;17.016;2023-02-28T11:28:33;26.10;18.30
65072;DHT22;51663;52.310;17.016;2023-02-28T11:31:36;25.60;18.40
65072;DHT22;51663;52.310;17.016;2023-02-28T11:34:39;25.60;18.70
65072;DHT22;51663;52.310;17.016;2023-02-28T11:37:42;25.80;18.10
65072;DHT22;51663;52.310;17.016;2023-02-28T11:51:21;27.20;17.40
65072;DHT22;51663;52.310;17.016;2023-02-28T12:11:10;27.00;17.40
65072;DHT22;51663;52.310;17.016;2023-02-28T12:17:55;27.30;17.60
65072;DHT22;51663;52.310;17.016;2023-02-28T12:21:15;27.60;17.40
65072;DHT22;51663;52.310;17.016;2023-02-28T12:24:28;26.10;18.20
65072;DHT22;51663;52.310;17.016;2023-02-28T12:27:41;26.90;17.90
65072;DHT22;51663;52.310;17.016;2023-02-28T12:34:20;27.80;17.40
65072;DHT22;51663;52.310;17.016;2023-02-28T12:37:38;28.00;17.20
65072;DHT22;51663;52.310;17.016;2023-02-28T12:40:50;27.40;17.20
65072;DHT22;51663;52.310;17.016;2023-02-28T12:44:12;27.00;17.90
65072;DHT22;51663;52.310;17.016;2023-02-28T12:47:18;27.60;17.60
65072;DHT22;51663;52.310;17.016;2023-02-28T12:50:21;27.50;17.50
65072;DHT22;51663;52.310;17.016;2023-02-28T12:53:39;27.90;17.00
65072;DHT22;51663;52.310;17.016;2023-02-28T13:00:08;28.40;16.60
65072;DHT22;51663;52.310;17.016;2023-02-28T13:03:44;28.30;16.60
65072;DHT22;51663;52.310;17.016;2023-02-28T13:10:48;29.00;16.70
65072;DHT22;51663;52.310;17.016;2023-02-28T13:14:06;28.40;17.00
65072;DHT22;51663;52.310;17.016;2023-02-28T13:17:21;28.10;17.00
65072;DHT22;51663;52.310;17.016;2023-02-28T13:20:32;28.50;16.70
65072;DHT22;51663;52.310;17.016;2023-02-28T13:30:58;28.40;17.10
65072;DHT22;51663;52.310;17.016;2023-02-28T13:36:31;28.50;17.10
65072;DHT22;51663;52.310;17.016;2023-02-28T13:42:48;28.90;16.60
65072;DHT22;51663;52.310;17.016;2023-02-28T13:46:08;28.80;16.30
65072;DHT22;51663;52.310;17.016;2023-02-28T13:49:27;28.70;16.40
65072;DHT22;51663;52.310;17.016;2023-02-28T13:52:35;28.80;16.50
65072;DHT22;51663;52.310;17.016;2023-02-28T13:56:31;28.50;16.90
65072;DHT22;51663;52.310;17.016;2023-02-28T14:06:32;26.50;17.80
65072;DHT22;51663;52.310;17.016;2023-02-28T14:09:42;27.30;17.90
65072;DHT22;51663;52.310;17.016;2023-02-28T14:12:55;27.60;17.60
65072;DHT22;51663;52.310;17.016;2023-02-28T14:16:02;27.80;17.60
65072;DHT22;51663;52.310;17.016;2023-02-28T14:19:15;27.90;17.40
65072;DHT22;51663;52.310;17.016;2023-02-28T14:23:09;28.20;17.20
65072;DHT22;51663;52.310;17.016;2023-02-28T14:29:41;27.90;17.40
65072;DHT22;51663;52.310;17.016;2023-02-28T14:33:11;28.00;17.10
65072;DHT22;51663;52.310;17.016;2023-02-28T14:36:27;28.00;17.30
65072;DHT22;51663;52.310;17.016;2023-02-28T14:39:35;28.50;16.80
65072;DHT22;51663;52.310;17.016;2023-02-28T14:42:38;28.90;17.00
65072;DHT22;51663;52.310;17.016;2023-02-28T14:45:59;28.90;16.80
65072;DHT22;51663;52.310;17.016;2023-02-28T14:49:04;28.40;17.00
65072;DHT22;51663;52.310;17.016;2023-02-28T14:52:20;27.90;17.10
65072;DHT22;51663;52.310;17.016;2023-02-28T14:55:35;27.70;17.40
65072;DHT22;51663;52.310;17.016;2023-02-28T14:58:38;28.50;17.10
65072;DHT22;51663;52.310;17.016;2023-02-28T15:01:41;28.70;16.90
65072;DHT22;51663;52.310;17.016;2023-02-28T15:04:43;28.70;17.00
65072;DHT22;51663;52.310;17.016;2023-02-28T15:08:15;28.80;16.90
65072;DHT22;51663;52.310;17.016;2023-02-28T15:11:19;28.80;16.80
65072;DHT22;51663;52.310;17.016;2023-02-28T15:14:24;28.80;16.80
65072;DHT22;51663;52.310;17.016;2023-02-28T15:17:30;29.00;16.70
65072;DHT22;51663;52.310;17.016;2023-02-28T15:20:32;29.20;16.80
65072;DHT22;51663;52.310;17.016;2023-02-28T15:23:36;29.20;16.80
65072;DHT22;51663;52.310;17.016;2023-02-28T15:26:42;29.10;16.80
65072;DHT22;51663;52.310;17.016;2023-02-28T15:29:50;29.20;17.00
65072;DHT22;51663;52.310;17.016;2023-02-28T15:36:25;29.20;16.70
65072;DHT22;51663;52.310;17.016;2023-02-28T15:39:29;29.30;16.70
65072;DHT22;51663;52.310;17.016;2023-02-28T15:42:33;29.30;16.80
65072;DHT22;51663;52.310;17.016;2023-02-28T15:45:55;29.40;16.70
65072;DHT22;51663;52.310;17.016;2023-02-28T15:48:58;29.40;16.80
65072;DHT22;51663;52.310;17.016;2023-02-28T15:52:00;29.40;16.60
65072;DHT22;51663;52.310;17.016;2023-02-28T15:55:22;29.40;16.70
65072;DHT22;51663;52.310;17.016;2023-02-28T15:58:25;29.40;16.80
65072;DHT22;51663;52.310;17.016;2023-02-28T16:01:36;29.30;16.70
65072;DHT22;51663;52.310;17.016;2023-02-28T16:08:14;29.20;17.20
65072;DHT22;51663;52.310;17.016;2023-02-28T16:11:17;29.10;17.00
65072;DHT22;51663;52.310;17.016;2023-02-28T16:14:26;29.10;17.30
65072;DHT22;51663;52.310;17.016;2023-02-28T16:17:38;29.00;17.10
65072;DHT22;51663;52.310;17.016;2023-02-28T16:20:41;28.90;17.10
65072;DHT22;51663;52.310;17.016;2023-02-28T16:23:47;29.00;17.10
65072;DHT22;51663;52.310;17.016;2023-02-28T16:26:51;29.00;17.70
65072;DHT22;51663;52.310;17.016;2023-02-28T16:29:54;28.90;17.80
65072;DHT22;51663;52.310;17.016;2023-02-28T16:32:57;28.80;17.80
65072;DHT22;51663;52.310;17.016;2023-02-28T16:36:05;28.80;17.70
65072;DHT22;51663;52.310;17.016;2023-02-28T16:39:11;28.60;17.40
65072;DHT22;51663;52.310;17.016;2023-02-28T16:42:18;28.60;17.60
65072;DHT22;51663;52.310;17.016;2023-02-28T16:45:26;28.50;17.60
65072;DHT22;51663;52.310;17.016;2023-02-28T16:48:29;28.40;18.10
65072;DHT22;51663;52.310;17.016;2023-02-28T16:51:32;28.40;17.80
65072;DHT22;51663;52.310;17.016;2023-02-28T16:54:46;28.30;17.80
65072;DHT22;51663;52.310;17.016;2023-02-28T16:58:01;28.20;17.80
65072;DHT22;51663;52.310;17.016;2023-02-28T17:01:11;28.10;17.80
65072;DHT22;51663;52.310;17.016;2023-02-28T17:04:16;28.10;17.90
65072;DHT22;51663;52.310;17.016;2023-02-28T17:07:21;28.00;18.00
65072;DHT22;51663;52.310;17.016;2023-02-28T17:10:38;27.90;18.10
65072;DHT22;51663;52.310;17.016;2023-02-28T17:13:45;27.90;18.10
65072;DHT22;51663;52.310;17.016;2023-02-28T17:16:51;27.90;18.20
65072;DHT22;51663;52.310;17.016;2023-02-28T17:20:04;27.70;18.10
65072;DHT22;51663;52.310;17.016;2023-02-28T17:23:19;27.70;18.10
65072;DHT22;51663;52.310;17.016;2023-02-28T17:26:26;27.70;18.20
65072;DHT22;51663;52.310;17.016;2023-02-28T17:29:30;27.60;18.20
65072;DHT22;51663;52.310;17.016;2023-02-28T17:32:35;27.50;18.20
65072;DHT22;51663;52.310;17.016;2023-02-28T17:35:39;27.50;18.20
65072;DHT22;51663;52.310;17.016;2023-02-28T17:38:42;27.40;18.20
65072;DHT22;51663;52.310;17.016;2023-02-28T17:41:47;27.40;18.20
65072;DHT22;51663;52.310;17.016;2023-02-28T17:44:57;27.30;18.30
65072;DHT22;51663;52.310;17.016;2023-02-28T17:51:25;27.20;18.60
65072;DHT22;51663;52.310;17.016;2023-02-28T17:54:52;27.20;18.50
65072;DHT22;51663;52.310;17.016;2023-02-28T17:57:58;27.20;18.40
65072;DHT22;51663;52.310;17.016;2023-02-28T18:01:38;27.10;18.50
65072;DHT22;51663;52.310;17.016;2023-02-28T18:05:02;27.10;18.50
65072;DHT22;51663;52.310;17.016;2023-02-28T18:08:09;27.00;18.70
65072;DHT22;51663;52.310;17.016;2023-02-28T18:11:12;26.90;18.80
65072;DHT22;51663;52.310;17.016;2023-02-28T18:14:22;26.80;18.90
65072;DHT22;51663;52.310;17.016;2023-02-28T18:17:25;26.80;18.80
65072;DHT22;51663;52.310;17.016;2023-02-28T18:20:28;26.80;18.70
65072;DHT22;51663;52.310;17.016;2023-02-28T18:23:30;26.90;18.60
65072;DHT22;51663;52.310;17.016;2023-02-28T18:26:33;26.90;18.60
65072;DHT22;51663;52.310;17.016;2023-02-28T18:29:36;26.90;18.40
65072;DHT22;51663;52.310;17.016;2023-02-28T18:32:41;26.80;18.50
65072;DHT22;51663;52.310;17.016;2023-02-28T18:35:43;26.80;18.70
65072;DHT22;51663;52.310;17.016;2023-02-28T18:38:47;26.70;18.50
65072;DHT22;51663;52.310;17.016;2023-02-28T18:41:49;26.70;18.60
65072;DHT22;51663;52.310;17.016;2023-02-28T18:44:51;26.70;18.60
65072;DHT22;51663;52.310;17.016;2023-02-28T18:47:54;26.70;18.70
65072;DHT22;51663;52.310;17.016;2023-02-28T18:50:56;26.60;18.50
65072;DHT22;51663;52.310;17.016;2023-02-28T18:54:11;26.60;18.60
65072;DHT22;51663;52.310;17.016;2023-02-28T18:57:16;26.50;18.70
65072;DHT22;51663;52.310;17.016;2023-02-28T19:00:22;26.60;18.70
65072;DHT22;51663;52.310;17.016;2023-02-28T19:03:40;26.50;18.70
65072;DHT22;51663;52.310;17.016;2023-02-28T19:06:45;26.60;18.40
65072;DHT22;51663;52.310;17.016;2023-02-28T19:09:50;26.50;18.50
65072;DHT22;51663;52.310;17.016;2023-02-28T19:12:53;26.40;18.60
65072;DHT22;51663;52.310;17.016;2023-02-28T19:16:03;26.30;18.60
65072;DHT22;51663;52.310;17.016;2023-02-28T19:19:06;26.30;18.60
65072;DHT22;51663;52.310;17.016;2023-02-28T19:22:14;26.30;18.90
65072;DHT22;51663;52.310;17.016;2023-02-28T19:25:25;26.20;18.80
65072;DHT22;51663;52.310;17.016;2023-02-28T19:28:29;26.20;18.80
65072;DHT22;51663;52.310;17.016;2023-02-28T19:31:38;26.30;18.70
65072;DHT22;51663;52.310;17.016;2023-02-28T19:34:41;26.20;18.70
65072;DHT22;51663;52.310;17.016;2023-02-28T19:37:43;26.20;18.70
65072;DHT22;51663;52.310;17.016;2023-02-28T19:40:46;26.20;18.70
65072;DHT22;51663;52.310;17.016;2023-02-28T19:43:51;26.10;18.70
65072;DHT22;51663;52.310;17.016;2023-02-28T19:46:53;26.10;18.70
65072;DHT22;51663;52.310;17.016;2023-02-28T19:49:56;26.10;18.70
65072;DHT22;51663;52.310;17.016;2023-02-28T19:52:59;26.00;18.70
65072;DHT22;51663;52.310;17.016;2023-02-28T19:56:03;26.00;18.70
65072;DHT22;51663;52.310;17.016;2023-02-28T19:59:06;26.10;18.60
65072;DHT22;51663;52.310;17.016;2023-02-28T20:02:22;26.10;18.60
65072;DHT22;51663;52.310;17.016;2023-02-28T20:05:25;26.00;18.60
65072;DHT22;51663;52.310;17.016;2023-02-28T20:08:27;26.00;18.70
65072;DHT22;51663;52.310;17.016;2023-02-28T20:11:30;26.00;18.60
65072;DHT22;51663;52.310;17.016;2023-02-28T20:14:32;25.90;18.70
65072;DHT22;51663;52.310;17.016;2023-02-28T20:17:37;25.80;18.90
65072;DHT22;51663;52.310;17.016;2023-02-28T20:20:45;25.90;18.90
65072;DHT22;51663;52.310;17.016;2023-02-28T20:23:51;25.90;18.70
65072;DHT22;51663;52.310;17.016;2023-02-28T20:26:57;25.90;19.40
65072;DHT22;51663;52.310;17.016;2023-02-28T20:30:00;25.90;18.50
65072;DHT22;51663;52.310;17.016;2023-02-28T20:33:03;26.00;18.60
65072;DHT22;51663;52.310;17.016;2023-02-28T20:36:06;26.00;18.50
65072;DHT22;51663;52.310;17.016;2023-02-28T20:39:19;25.90;18.30
65072;DHT22;51663;52.310;17.016;2023-02-28T20:42:26;25.90;18.30
65072;DHT22;51663;52.310;17.016;2023-02-28T20:45:30;25.80;18.50
65072;DHT22;51663;52.310;17.016;2023-02-28T20:48:33;25.90;18.40
65072;DHT22;51663;52.310;17.016;2023-02-28T20:51:42;25.80;18.40
65072;DHT22;51663;52.310;17.016;2023-02-28T20:54:45;25.80;18.20
65072;DHT22;51663;52.310;17.016;2023-02-28T20:57:48;25.60;18.70
65072;DHT22;51663;52.310;17.016;2023-02-28T21:01:04;25.60;18.70
65072;DHT22;51663;52.310;17.016;2023-02-28T21:04:16;25.50;18.90
65072;DHT22;51663;52.310;17.016;2023-02-28T21:07:23;25.50;19.50
65072;DHT22;51663;52.310;17.016;2023-02-28T21:10:30;25.60;18.70
65072;DHT22;51663;52.310;17.016;2023-02-28T21:13:48;25.70;18.70
65072;DHT22;51663;52.310;17.016;2023-02-28T21:17:41;25.70;18.60